Glasgow, United Kingdom

5:31 AM BST on September 21, 2014 (GMT +0100)
Glasgow | Change Station
CLOSE
Current Station
Airport
Location: Glasgow,
Elevation: 26 ft
Nearby Weather Stations

Elev 26 ft 55.87 °N, 4.43 °W | Updated 41 minutes ago

Shallow Fog
Shallow Fog
39 °F
Feels Like 39 °F
N
2
Wind Variable Wind from West

Today
High -- | Low -- °F
--% Chance of Precip.
Yesterday
High -- | Low -- °F
Precip. -- in
7:00 AM 7:19 PM
Waning Crescent, 9% visible
Pressure 30.27 in
Visibility 6.2 miles
Clouds
Dew Point 39 °F
Humidity 100%
Rainfall 0.00 in
Snow Depth Not available.
UV Not available.
Pollen Not available.
Air Quality Not available.
Flu Activity Not available.
METAR EGPF 210350Z 26002KT 9999 MIFG NSC 04/04 Q1025

More Conditions Fewer Conditions

Pressure 30.27 in
Visibility 6.2 miles
Clouds
Dew Point 39 °F
Humidity 100%
Rainfall 0.00 in
Snow Depth Not available.
UV Not available.
Pollen Not available.
Air Quality Not available.
Flu Activity Not available.
METAR EGPF 210350Z 26002KT 9999 MIFG NSC 04/04 Q1025

More Conditions Fewer Conditions

10-Day Weather Forecast

Almanac

Astronomy

Sep. 21, 2014 Rise Set
Actual Time 7:00 AM BST 7:19 PM BST
Civil Twilight 6:23 AM BST 7:56 PM BST
Nautical Twilight 5:39 AM BST 8:40 PM BST
Astronomical Twilight 4:51 AM BST 9:27 PM BST
Moon 3:59 AM BST 6:05 PM BST
Length of Visible Light 13h 33m
Length of Day
12h 19m
Tomorrow will be 4m 35s shorter.
Waning Crescent, 9% of the Moon is Illuminated
Today
Waning Crescent
Sep 24
New
Oct 1
First Quarter
Oct 8
Full
Oct 15
Last Quarter

Yesterday's Extremes

Country Highs Country Lows

Community

WunderPhotos

Upload Photos

1,755,081 photos uploaded!

Nearby

Snow Depth

Not available.

Earthquake Activity

City Distance Mag. Time & Date
No recent earthquake activity has been reported nearby.
Minimum magnitude displayed is 2.5.

Coastal Water Temperatures

Place Temperature
No Stations Reporting

Nearby Weather Stations